Time;durP1;ratioP1;P1;durP2;ratioP2;P2;SDS_P1;SDS_P2;PMS_P1;PMS_P2;Temp;Humidity;BMP_temperature;BMP_pressure;BME280_temperature;BME280_humidity;BME280_pressure;Samples;Min_cycle;Max_cycle;Signal;HPM_P1;HPM_P2
2021/10/08 00:00:56;;;;;;;;;;;18.70;99.90;;;;;;5094254;28;20049;-68
2021/10/08 00:03:22;;;;;;;;;;;19.00;99.60;;;;;;5093979;28;20315;-68
2021/10/08 00:05:49;;;;;;;;;;;19.20;99.70;;;;;;5094106;28;19917;-70
2021/10/08 00:08:16;;;;;;;;;;;19.50;98.80;;;;;;5094506;28;19962;-69
2021/10/08 00:10:42;;;;;;;;;;;19.70;98.30;;;;;;5092251;28;19959;-69
2021/10/08 00:13:12;;;;;;;;;;;19.90;97.80;;;;;;5093838;28;19912;-69
2021/10/08 00:15:39;;;;;;;;;;;19.80;97.70;;;;;;5094066;28;20351;-70
2021/10/08 00:18:05;;;;;;;;;;;19.60;97.90;;;;;;5093887;28;20316;-68
2021/10/08 00:20:32;;;;;;;;;;;19.50;98.50;;;;;;5092669;28;20335;-70
2021/10/08 00:23:01;;;;;;;;;;;19.40;98.50;;;;;;5093771;28;19919;-68
2021/10/08 00:25:28;;;;;;;;;;;19.50;98.10;;;;;;5093815;28;20014;-70
2021/10/08 00:27:55;;;;;;;;;;;19.40;98.10;;;;;;5093790;28;19916;-71
2021/10/08 00:30:21;;;;;;;;;;;19.30;98.10;;;;;;5093972;28;20406;-70
2021/10/08 00:32:48;;;;;;;;;;;19.40;98.10;;;;;;5092382;28;19912;-71
2021/10/08 00:35:15;;;;;;;;;;;19.60;98.10;;;;;;5093485;28;20259;-69
2021/10/08 00:37:41;;;;;;;;;;;19.50;97.60;;;;;;5095577;28;19998;-70
2021/10/08 00:40:08;;;;;;;;;;;19.50;97.90;;;;;;5093434;28;20006;-71
2021/10/08 00:42:39;;;;;;;;;;;19.50;98.20;;;;;;5094356;28;19908;-70
2021/10/08 00:45:06;;;;;;;;;;;19.40;97.90;;;;;;5094232;28;19961;-70
2021/10/08 00:47:34;;;;;;;;;;;19.30;98.10;;;;;;5094603;28;20329;-71
2021/10/08 00:50:00;;;;;;;;;;;19.20;98.20;;;;;;5094088;28;19915;-68
2021/10/08 00:52:27;;;;;;;;;;;19.00;98.40;;;;;;5093928;28;19908;-69
2021/10/08 00:54:54;;;;;;;;;;;19.00;98.40;;;;;;5094606;28;19956;-70
2021/10/08 00:57:20;;;;;;;;;;;19.00;98.70;;;;;;5095862;28;20420;-72
2021/10/08 00:59:47;;;;;;;;;;;18.90;98.80;;;;;;5094340;28;19908;-69
2021/10/08 01:02:14;;;;;;;;;;;19.10;98.90;;;;;;5094557;28;19930;-68
2021/10/08 01:04:41;;;;;;;;;;;19.00;98.50;;;;;;5094299;28;19916;-70
2021/10/08 01:07:07;;;;;;;;;;;19.00;98.80;;;;;;5094623;28;19908;-69
2021/10/08 01:09:34;;;;;;;;;;;19.10;98.70;;;;;;5095481;28;20067;-69
2021/10/08 01:12:02;;;;;;;;;;;19.10;98.70;;;;;;5093483;28;19908;-70
2021/10/08 01:14:29;;;;;;;;;;;19.50;98.10;;;;;;5093191;28;19939;-69
2021/10/08 01:16:55;;;;;;;;;;;20.10;97.20;;;;;;5093187;28;19908;-69
2021/10/08 01:19:22;;;;;;;;;;;20.50;96.40;;;;;;5091429;28;20336;-69
2021/10/08 01:21:49;;;;;;;;;;;20.90;96.50;;;;;;5092866;28;19916;-69
2021/10/08 01:24:15;;;;;;;;;;;21.40;95.80;;;;;;5092682;28;20281;-69
2021/10/08 01:26:42;;;;;;;;;;;21.70;95.50;;;;;;5092907;28;20029;-68
2021/10/08 01:29:10;;;;;;;;;;;21.30;95.10;;;;;;5092841;28;19908;-69
2021/10/08 01:31:37;;;;;;;;;;;21.10;95.30;;;;;;5092588;28;19908;-71
2021/10/08 01:34:03;;;;;;;;;;;20.90;95.80;;;;;;5092582;28;19996;-69
2021/10/08 01:36:31;;;;;;;;;;;20.80;95.70;;;;;;5093152;28;20024;-71
2021/10/08 01:38:57;;;;;;;;;;;20.60;95.80;;;;;;5093002;28;20002;-69
2021/10/08 01:41:24;;;;;;;;;;;20.40;96.40;;;;;;5092913;28;19947;-69
2021/10/08 01:43:50;;;;;;;;;;;20.40;96.30;;;;;;5093258;28;19908;-69
2021/10/08 01:46:17;;;;;;;;;;;20.10;96.70;;;;;;5092890;28;20007;-70
2021/10/08 01:48:44;;;;;;;;;;;20.00;96.90;;;;;;5092039;28;19999;-68
2021/10/08 01:51:10;;;;;;;;;;;20.00;97.10;;;;;;5093789;28;19952;-68
2021/10/08 01:53:37;;;;;;;;;;;20.00;97.30;;;;;;5093569;28;19908;-70
2021/10/08 01:56:04;;;;;;;;;;;20.00;97.00;;;;;;5094169;28;20014;-68
2021/10/08 01:58:31;;;;;;;;;;;20.10;96.50;;;;;;5093879;28;19908;-69
2021/10/08 02:00:58;;;;;;;;;;;20.30;96.50;;;;;;5093868;28;19994;-69
2021/10/08 02:03:25;;;;;;;;;;;20.40;96.80;;;;;;5091085;28;19969;-69
2021/10/08 02:05:51;;;;;;;;;;;20.40;96.50;;;;;;5092964;28;20006;-70
2021/10/08 02:08:19;;;;;;;;;;;20.50;96.10;;;;;;5093085;28;19939;-72
2021/10/08 02:10:46;;;;;;;;;;;20.30;96.50;;;;;;5092476;28;19977;-70
2021/10/08 02:13:13;;;;;;;;;;;20.40;97.10;;;;;;5092641;28;19953;-70
2021/10/08 02:15:39;;;;;;;;;;;20.50;96.90;;;;;;5092751;28;19962;-69
2021/10/08 02:18:06;;;;;;;;;;;20.40;97.40;;;;;;5091622;28;19915;-69
2021/10/08 02:20:33;;;;;;;;;;;20.20;97.30;;;;;;5091011;28;20002;-68
2021/10/08 02:22:59;;;;;;;;;;;20.10;97.30;;;;;;5090006;28;20009;-70
2021/10/08 02:25:26;;;;;;;;;;;20.00;97.30;;;;;;5092408;28;19920;-69
2021/10/08 02:27:52;;;;;;;;;;;20.00;97.50;;;;;;5092247;28;19915;-70
2021/10/08 02:30:19;;;;;;;;;;;20.00;97.50;;;;;;5092591;28;19915;-70
2021/10/08 02:32:46;;;;;;;;;;;20.00;97.50;;;;;;5093264;28;19908;-68
2021/10/08 02:35:12;;;;;;;;;;;20.20;97.80;;;;;;5095251;28;19908;-69
2021/10/08 02:37:39;;;;;;;;;;;20.10;97.60;;;;;;5095583;28;19915;-69
2021/10/08 02:40:06;;;;;;;;;;;20.00;97.40;;;;;;5095823;28;19912;-68
2021/10/08 02:42:33;;;;;;;;;;;19.80;97.60;;;;;;5095508;28;20358;-68
2021/10/08 02:45:00;;;;;;;;;;;19.90;97.50;;;;;;5095579;28;20011;-69
2021/10/08 02:47:27;;;;;;;;;;;20.10;97.90;;;;;;5095309;28;20537;-68
2021/10/08 02:49:53;;;;;;;;;;;20.00;97.60;;;;;;5095017;28;19961;-69
2021/10/08 02:52:20;;;;;;;;;;;20.00;97.90;;;;;;5095381;28;19934;-69
2021/10/08 02:54:46;;;;;;;;;;;19.90;97.90;;;;;;5095513;28;19908;-67
2021/10/08 02:57:13;;;;;;;;;;;20.00;98.30;;;;;;5095745;28;19912;-70
2021/10/08 02:59:40;;;;;;;;;;;20.00;98.30;;;;;;5095139;28;19912;-67
2021/10/08 03:02:06;;;;;;;;;;;20.10;98.00;;;;;;5094304;28;19919;-71
2021/10/08 03:04:36;;;;;;;;;;;20.10;97.60;;;;;;5095073;28;19923;-69
2021/10/08 03:07:03;;;;;;;;;;;20.00;97.60;;;;;;5095397;28;20041;-68
2021/10/08 03:09:29;;;;;;;;;;;20.30;97.50;;;;;;5094829;28;20006;-70
2021/10/08 03:11:56;;;;;;;;;;;20.40;97.50;;;;;;5094943;28;20001;-69
2021/10/08 03:14:23;;;;;;;;;;;20.30;96.90;;;;;;5095155;28;19930;-70
2021/10/08 03:16:49;;;;;;;;;;;20.30;97.50;;;;;;5095079;28;19912;-70
2021/10/08 03:19:16;;;;;;;;;;;20.30;97.80;;;;;;5094375;28;20335;-71
2021/10/08 03:21:42;;;;;;;;;;;20.20;97.60;;;;;;5094367;28;19912;-69
2021/10/08 03:24:09;;;;;;;;;;;20.10;97.90;;;;;;5094777;28;19919;-68
2021/10/08 03:26:36;;;;;;;;;;;20.00;98.00;;;;;;5094936;28;20255;-69
2021/10/08 03:29:03;;;;;;;;;;;19.90;97.90;;;;;;5094516;28;19916;-69
2021/10/08 03:31:29;;;;;;;;;;;19.80;97.70;;;;;;5094500;28;20010;-71
2021/10/08 03:33:56;;;;;;;;;;;19.80;98.30;;;;;;5094504;28;20342;-72
2021/10/08 03:37:07;;;;;;;;;;;20.00;98.20;;;;;;5094628;28;19915;-72
2021/10/08 03:39:16;;;;;;;;;;;20.00;98.10;;;;;;5091103;28;19918;-71
2021/10/08 03:41:43;;;;;;;;;;;19.90;97.80;;;;;;5094001;28;20300;-70
2021/10/08 03:44:11;;;;;;;;;;;20.00;97.70;;;;;;5094491;28;19952;-71
2021/10/08 03:46:42;;;;;;;;;;;20.10;97.70;;;;;;5093732;28;19956;-70
2021/10/08 03:51:36;;;;;;;;;;;19.90;98.20;;;;;;5094050;28;19908;-71
2021/10/08 03:54:03;;;;;;;;;;;20.00;97.70;;;;;;5094656;28;19915;-71
2021/10/08 03:56:30;;;;;;;;;;;20.00;98.10;;;;;;5096153;28;19908;-71
2021/10/08 03:58:58;;;;;;;;;;;19.90;98.30;;;;;;5096124;28;20302;-70
2021/10/08 04:01:25;;;;;;;;;;;19.70;98.30;;;;;;5095292;28;20474;-70
2021/10/08 04:03:51;;;;;;;;;;;19.70;98.40;;;;;;5094942;28;19938;-71
2021/10/08 04:06:18;;;;;;;;;;;19.80;98.50;;;;;;5096254;28;19920;-68
2021/10/08 04:08:45;;;;;;;;;;;19.90;98.30;;;;;;5095748;28;20374;-70
2021/10/08 04:11:12;;;;;;;;;;;19.80;98.10;;;;;;5096886;28;19989;-70
2021/10/08 04:13:39;;;;;;;;;;;19.70;97.90;;;;;;5094262;28;20006;-69
2021/10/08 04:16:08;;;;;;;;;;;19.70;97.90;;;;;;5094455;28;19912;-71
2021/10/08 04:18:35;;;;;;;;;;;19.70;97.70;;;;;;5094200;28;19916;-71
2021/10/08 04:21:01;;;;;;;;;;;19.70;98.40;;;;;;5093706;28;19915;-71
2021/10/08 04:23:28;;;;;;;;;;;19.70;98.70;;;;;;5094185;28;19920;-71
2021/10/08 04:25:54;;;;;;;;;;;19.80;98.50;;;;;;5093342;28;19920;-71
2021/10/08 04:28:21;;;;;;;;;;;19.70;98.80;;;;;;5093685;28;19912;-71
2021/10/08 04:30:48;;;;;;;;;;;19.80;98.70;;;;;;5093917;28;19908;-72
2021/10/08 04:33:19;;;;;;;;;;;19.80;98.60;;;;;;5093362;28;19908;-71
2021/10/08 04:35:46;;;;;;;;;;;19.80;98.90;;;;;;5093420;28;19919;-70
2021/10/08 04:38:13;;;;;;;;;;;19.80;98.80;;;;;;5093507;28;19915;-71
2021/10/08 04:40:40;;;;;;;;;;;19.80;98.60;;;;;;5093855;28;19960;-71
2021/10/08 04:43:07;;;;;;;;;;;19.80;98.60;;;;;;5093672;28;19909;-70
2021/10/08 04:45:34;;;;;;;;;;;19.80;98.10;;;;;;5093365;28;19916;-69
2021/10/08 04:48:00;;;;;;;;;;;19.70;98.60;;;;;;5093125;28;19930;-70
2021/10/08 04:50:27;;;;;;;;;;;19.70;98.90;;;;;;5093108;28;19912;-69
2021/10/08 04:52:54;;;;;;;;;;;19.70;98.80;;;;;;5094356;28;19910;-71
2021/10/08 04:55:21;;;;;;;;;;;19.70;98.90;;;;;;5094597;28;19923;-71
2021/10/08 04:57:47;;;;;;;;;;;19.70;99.00;;;;;;5093660;28;19948;-71
2021/10/08 05:00:14;;;;;;;;;;;19.60;98.80;;;;;;5094268;28;19908;-69
2021/10/08 05:02:41;;;;;;;;;;;19.50;99.20;;;;;;5093954;28;19915;-69
2021/10/08 05:05:08;;;;;;;;;;;19.50;99.60;;;;;;5076315;28;19971;-70
2021/10/08 05:07:36;;;;;;;;;;;19.40;99.50;;;;;;5093789;28;20303;-70
2021/10/08 05:10:03;;;;;;;;;;;19.40;99.60;;;;;;5091411;28;19909;-71
2021/10/08 05:12:30;;;;;;;;;;;19.30;99.50;;;;;;5076305;28;19919;-68
2021/10/08 05:14:56;;;;;;;;;;;19.30;99.10;;;;;;5094986;28;19916;-68
2021/10/08 05:17:27;;;;;;;;;;;19.20;99.60;;;;;;5094482;28;20228;-71
2021/10/08 05:19:58;;;;;;;;;;;19.20;99.80;;;;;;5077276;28;19912;-70
2021/10/08 05:22:25;;;;;;;;;;;19.30;99.90;;;;;;5095143;28;20282;-67
2021/10/08 05:24:51;;;;;;;;;;;19.30;99.90;;;;;;5094957;28;19964;-68
2021/10/08 05:27:21;;;;;;;;;;;19.30;99.90;;;;;;5093895;28;20459;-68
2021/10/08 05:29:48;;;;;;;;;;;19.30;99.90;;;;;;5096201;28;20259;-70
2021/10/08 05:32:16;;;;;;;;;;;19.40;99.40;;;;;;5095147;28;19993;-69
2021/10/08 05:34:43;;;;;;;;;;;19.30;99.20;;;;;;5095843;28;19931;-68
2021/10/08 05:37:10;;;;;;;;;;;19.20;99.90;;;;;;5095110;28;19915;-67
2021/10/08 05:39:39;;;;;;;;;;;19.10;99.90;;;;;;5098933;28;19908;-70
2021/10/08 05:42:06;;;;;;;;;;;19.00;99.90;;;;;;5080666;28;19908;-72
2021/10/08 05:44:33;;;;;;;;;;;19.00;99.90;;;;;;5095864;28;20305;-70
2021/10/08 05:47:00;;;;;;;;;;;19.00;99.90;;;;;;5096350;28;19912;-71
2021/10/08 05:49:30;;;;;;;;;;;19.10;99.90;;;;;;5096179;28;19912;-71
2021/10/08 05:51:56;;;;;;;;;;;19.10;99.90;;;;;;5094458;28;19912;-71
2021/10/08 05:54:23;;;;;;;;;;;19.10;99.90;;;;;;5094661;28;19908;-71
2021/10/08 05:56:50;;;;;;;;;;;19.00;99.90;;;;;;5094098;28;20394;-69
2021/10/08 05:59:16;;;;;;;;;;;19.00;99.90;;;;;;5093983;28;19908;-71
2021/10/08 06:01:43;;;;;;;;;;;19.00;99.90;;;;;;5091876;28;19912;-70
2021/10/08 06:04:09;;;;;;;;;;;19.00;99.90;;;;;;5090806;28;19909;-71
2021/10/08 06:06:36;;;;;;;;;;;19.00;99.90;;;;;;5090752;28;19951;-71
2021/10/08 06:09:03;;;;;;;;;;;19.00;99.90;;;;;;5091861;28;19950;-69
2021/10/08 06:11:30;;;;;;;;;;;18.90;99.90;;;;;;5094095;28;19915;-69
2021/10/08 06:13:57;;;;;;;;;;;19.00;99.90;;;;;;5094235;28;19953;-69
2021/10/08 06:16:23;;;;;;;;;;;18.90;99.90;;;;;;5093931;28;19916;-69
2021/10/08 06:18:50;;;;;;;;;;;18.90;99.90;;;;;;5093385;28;19915;-69
2021/10/08 06:21:17;;;;;;;;;;;18.80;99.90;;;;;;5069462;28;19912;-69
2021/10/08 06:23:44;;;;;;;;;;;18.80;99.90;;;;;;5085257;28;20351;-69
2021/10/08 06:26:11;;;;;;;;;;;18.70;99.90;;;;;;5093886;28;19924;-68
2021/10/08 06:28:38;;;;;;;;;;;18.70;99.90;;;;;;5094992;28;19912;-69
2021/10/08 06:31:10;;;;;;;;;;;18.70;99.90;;;;;;5093561;28;19915;-71
2021/10/08 06:33:37;;;;;;;;;;;18.60;99.90;;;;;;5093484;28;20426;-70
2021/10/08 06:36:04;;;;;;;;;;;18.50;99.90;;;;;;5094031;28;19908;-70
2021/10/08 06:38:31;;;;;;;;;;;18.50;99.90;;;;;;5093864;28;19908;-70
2021/10/08 06:40:57;;;;;;;;;;;18.40;99.90;;;;;;5093716;28;19946;-69
2021/10/08 06:43:24;;;;;;;;;;;18.40;99.90;;;;;;5092423;28;19912;-70
2021/10/08 06:45:51;;;;;;;;;;;18.30;99.90;;;;;;5093559;28;19982;-69
2021/10/08 06:48:18;;;;;;;;;;;18.30;99.90;;;;;;5093976;28;19909;-70
2021/10/08 06:50:45;;;;;;;;;;;18.30;99.90;;;;;;5093907;28;19916;-70
2021/10/08 06:53:11;;;;;;;;;;;18.20;99.90;;;;;;5092652;28;19999;-70
2021/10/08 06:55:38;;;;;;;;;;;18.30;99.90;;;;;;5093783;28;20255;-68
2021/10/08 06:58:06;;;;;;;;;;;18.40;99.90;;;;;;5094747;28;19912;-69
2021/10/08 07:00:32;;;;;;;;;;;18.40;99.90;;;;;;5093305;28;19912;-69
2021/10/08 07:02:59;;;;;;;;;;;18.30;99.90;;;;;;5092835;28;20006;-70
2021/10/08 07:05:26;;;;;;;;;;;18.30;99.90;;;;;;5091875;28;20346;-68
2021/10/08 07:07:53;;;;;;;;;;;18.20;99.90;;;;;;5093145;28;19919;-68
2021/10/08 07:10:20;;;;;;;;;;;18.20;99.90;;;;;;5093322;28;19909;-70
2021/10/08 07:12:47;;;;;;;;;;;18.20;99.90;;;;;;5094662;28;19953;-71
2021/10/08 07:15:18;;;;;;;;;;;18.20;99.90;;;;;;5094880;28;19908;-70
2021/10/08 07:17:48;;;;;;;;;;;18.10;99.90;;;;;;5093056;28;19963;-71
2021/10/08 07:20:16;;;;;;;;;;;18.10;99.90;;;;;;5092004;28;19916;-70
2021/10/08 07:22:43;;;;;;;;;;;18.10;99.90;;;;;;5091815;28;19916;-70
2021/10/08 07:25:10;;;;;;;;;;;18.10;99.90;;;;;;5092115;28;19955;-71
2021/10/08 07:27:38;;;;;;;;;;;18.00;99.90;;;;;;5093481;28;19953;-71
2021/10/08 07:30:05;;;;;;;;;;;18.00;99.90;;;;;;5093899;28;19920;-71
2021/10/08 07:32:32;;;;;;;;;;;18.00;99.90;;;;;;5092666;28;19908;-71
2021/10/08 07:34:59;;;;;;;;;;;17.90;99.90;;;;;;5093340;28;19909;-71
2021/10/08 07:37:31;;;;;;;;;;;17.90;99.90;;;;;;5093694;28;19934;-71
2021/10/08 07:39:58;;;;;;;;;;;17.90;99.90;;;;;;5091454;28;19995;-70
2021/10/08 07:42:28;;;;;;;;;;;17.90;99.90;;;;;;5092647;28;20009;-69
2021/10/08 07:44:54;;;;;;;;;;;17.80;99.90;;;;;;5092460;28;19916;-69
2021/10/08 07:47:21;;;;;;;;;;;17.80;99.90;;;;;;5090998;28;19923;-71
2021/10/08 07:49:48;;;;;;;;;;;17.80;99.90;;;;;;5092267;28;20345;-69
2021/10/08 07:52:15;;;;;;;;;;;17.80;99.90;;;;;;5092388;28;20408;-70
2021/10/08 07:54:41;;;;;;;;;;;17.80;99.90;;;;;;5092440;28;19961;-70
2021/10/08 07:57:09;;;;;;;;;;;17.80;99.90;;;;;;5092190;28;19948;-70
2021/10/08 07:59:36;;;;;;;;;;;17.80;99.90;;;;;;5091965;28;19919;-71
2021/10/08 08:02:02;;;;;;;;;;;17.80;99.90;;;;;;5091750;28;20569;-71
2021/10/08 08:04:29;;;;;;;;;;;17.70;99.90;;;;;;5091951;28;19908;-70
2021/10/08 08:06:56;;;;;;;;;;;17.70;99.90;;;;;;5085730;28;20360;-71
2021/10/08 08:09:26;;;;;;;;;;;17.60;99.90;;;;;;5072808;28;19916;-70
2021/10/08 08:11:52;;;;;;;;;;;17.60;99.90;;;;;;5073551;28;19908;-71
2021/10/08 08:14:19;;;;;;;;;;;17.70;99.90;;;;;;5074075;28;19916;-71
2021/10/08 08:16:46;;;;;;;;;;;17.60;99.90;;;;;;5073739;28;20320;-69
2021/10/08 08:19:14;;;;;;;;;;;17.60;99.90;;;;;;5073873;28;19908;-71
2021/10/08 08:21:43;;;;;;;;;;;17.60;99.90;;;;;;5073370;28;19908;-69
2021/10/08 08:24:10;;;;;;;;;;;17.60;99.90;;;;;;5072945;28;19920;-71
2021/10/08 08:26:38;;;;;;;;;;;17.60;99.90;;;;;;5073508;28;20291;-71
2021/10/08 08:29:05;;;;;;;;;;;17.60;99.90;;;;;;5073268;28;19916;-71
2021/10/08 08:31:32;;;;;;;;;;;17.60;99.90;;;;;;5072328;28;19954;-71
2021/10/08 08:33:59;;;;;;;;;;;17.50;99.90;;;;;;5073539;28;20003;-71
2021/10/08 08:36:26;;;;;;;;;;;17.50;99.90;;;;;;5073487;28;19921;-69
2021/10/08 08:38:53;;;;;;;;;;;17.50;99.90;;;;;;5073210;28;19916;-71
2021/10/08 08:41:23;;;;;;;;;;;17.50;99.90;;;;;;5072909;28;19913;-71
2021/10/08 08:43:49;;;;;;;;;;;17.50;99.90;;;;;;5073127;28;19909;-70
2021/10/08 08:46:16;;;;;;;;;;;17.50;99.90;;;;;;5073003;28;20287;-68
2021/10/08 08:48:43;;;;;;;;;;;17.50;99.90;;;;;;5077465;28;19909;-72
2021/10/08 08:51:09;;;;;;;;;;;17.50;99.90;;;;;;5073960;28;19962;-72
2021/10/08 08:53:36;;;;;;;;;;;17.50;99.90;;;;;;5072144;28;20376;-72
2021/10/08 08:56:03;;;;;;;;;;;17.50;99.90;;;;;;5072676;28;19972;-70
2021/10/08 08:58:30;;;;;;;;;;;17.50;99.90;;;;;;5073036;28;19916;-71
2021/10/08 09:01:00;;;;;;;;;;;17.40;99.90;;;;;;5072264;28;20011;-70
2021/10/08 09:03:27;;;;;;;;;;;17.40;99.90;;;;;;5077524;28;20298;-71
2021/10/08 09:05:54;;;;;;;;;;;17.40;99.90;;;;;;5073241;28;19927;-71
2021/10/08 09:08:29;;;;;;;;;;;17.40;99.90;;;;;;5072290;28;20536;-71
2021/10/08 09:10:58;;;;;;;;;;;17.40;99.90;;;;;;5072565;28;20003;-71
2021/10/08 09:13:27;;;;;;;;;;;17.50;99.90;;;;;;5072743;28;20382;-70
2021/10/08 09:15:55;;;;;;;;;;;17.40;99.90;;;;;;5073192;28;19916;-70
2021/10/08 09:18:23;;;;;;;;;;;17.50;99.90;;;;;;5072589;28;19912;-71
2021/10/08 09:21:05;;;;;;;;;;;17.50;99.90;;;;;;5072654;28;19935;-70
2021/10/08 09:23:33;;;;;;;;;;;17.50;99.90;;;;;;5071831;28;19920;-70
2021/10/08 09:25:59;;;;;;;;;;;17.40;99.90;;;;;;5072449;28;19923;-71
2021/10/08 09:28:26;;;;;;;;;;;17.40;99.90;;;;;;5072529;28;19908;-70
2021/10/08 09:30:54;;;;;;;;;;;17.40;99.90;;;;;;5072273;28;20293;-70
2021/10/08 09:33:22;;;;;;;;;;;17.40;99.90;;;;;;5087243;28;19908;-71
2021/10/08 09:35:53;;;;;;;;;;;17.40;99.90;;;;;;5072632;28;19970;-71
2021/10/08 09:38:20;;;;;;;;;;;17.40;99.90;;;;;;5071851;28;19908;-71
2021/10/08 09:40:49;;;;;;;;;;;17.40;99.90;;;;;;5072029;28;19963;-71
2021/10/08 09:43:22;;;;;;;;;;;17.40;99.90;;;;;;5071206;28;19916;-71
2021/10/08 09:45:53;;;;;;;;;;;17.40;99.90;;;;;;5071909;28;20516;-72
2021/10/08 09:48:20;;;;;;;;;;;17.40;99.90;;;;;;5072302;28;20003;-71
2021/10/08 09:50:59;;;;;;;;;;;17.40;99.90;;;;;;5072189;28;19916;-69
2021/10/08 09:53:26;;;;;;;;;;;17.40;99.90;;;;;;5071872;28;20568;-68
2021/10/08 09:55:53;;;;;;;;;;;17.40;99.90;;;;;;5071804;28;20286;-68
2021/10/08 09:58:21;;;;;;;;;;;17.40;99.90;;;;;;5072638;28;19960;-69
2021/10/08 10:01:04;;;;;;;;;;;17.40;99.90;;;;;;5071551;28;19912;-70
2021/10/08 10:03:31;;;;;;;;;;;17.40;99.90;;;;;;5071655;28;19916;-69
2021/10/08 10:06:01;;;;;;;;;;;17.40;99.90;;;;;;5071987;28;19920;-69
2021/10/08 10:08:30;;;;;;;;;;;17.40;99.90;;;;;;5071822;28;19913;-71
2021/10/08 10:10:58;;;;;;;;;;;17.40;99.90;;;;;;5071955;28;19999;-71
2021/10/08 10:13:25;;;;;;;;;;;17.40;99.90;;;;;;5071794;28;19913;-71
2021/10/08 10:15:52;;;;;;;;;;;17.40;99.90;;;;;;5069962;28;20010;-69
2021/10/08 10:18:20;;;;;;;;;;;17.40;99.90;;;;;;5102304;28;19913;-69
2021/10/08 10:20:48;;;;;;;;;;;17.40;99.90;;;;;;5069625;28;19908;-69
2021/10/08 10:23:16;;;;;;;;;;;17.40;99.90;;;;;;5070366;28;19924;-69
2021/10/08 10:25:44;;;;;;;;;;;17.30;99.90;;;;;;5069610;28;19920;-71
2021/10/08 10:28:11;;;;;;;;;;;17.40;99.90;;;;;;5069593;28;19908;-70
2021/10/08 10:30:39;;;;;;;;;;;17.30;99.90;;;;;;5069572;28;19912;-71
2021/10/08 10:33:07;;;;;;;;;;;17.30;99.90;;;;;;5069439;28;19928;-70
2021/10/08 10:35:42;;;;;;;;;;;17.30;99.90;;;;;;5069561;28;19916;-72
2021/10/08 10:38:21;;;;;;;;;;;17.30;99.90;;;;;;5069731;28;19915;-71
2021/10/08 10:40:48;;;;;;;;;;;17.30;99.90;;;;;;5069539;28;20000;-70
2021/10/08 10:43:15;;;;;;;;;;;17.30;99.90;;;;;;5069226;28;20072;-68
2021/10/08 10:45:47;;;;;;;;;;;17.30;99.90;;;;;;5069539;28;20013;-69
2021/10/08 10:48:19;;;;;;;;;;;17.30;99.90;;;;;;5069654;28;20440;-70
2021/10/08 10:51:09;;;;;;;;;;;17.30;99.90;;;;;;5069256;28;19913;-71
2021/10/08 10:53:51;;;;;;;;;;;17.20;99.90;;;;;;5069567;28;19916;-69
2021/10/08 10:56:36;;;;;;;;;;;17.20;99.90;;;;;;5072231;28;19980;-70
2021/10/08 10:59:25;;;;;;;;;;;17.30;99.90;;;;;;5073059;28;20320;-69
2021/10/08 11:02:15;;;;;;;;;;;17.20;99.90;;;;;;5072410;28;20325;-70
2021/10/08 11:04:43;;;;;;;;;;;17.20;99.90;;;;;;5073191;28;19909;-71
2021/10/08 11:07:11;;;;;;;;;;;17.20;99.90;;;;;;5072999;28;19912;-70
2021/10/08 11:09:38;;;;;;;;;;;17.20;99.90;;;;;;5072506;28;20342;-70
2021/10/08 11:12:22;;;;;;;;;;;17.20;99.90;;;;;;5073277;28;20004;-69
2021/10/08 11:14:49;;;;;;;;;;;17.20;99.90;;;;;;5072957;28;19962;-70
2021/10/08 11:17:34;;;;;;;;;;;17.20;99.90;;;;;;5073003;28;19909;-69
2021/10/08 11:20:00;;;;;;;;;;;17.20;99.90;;;;;;5072956;28;20359;-70
2021/10/08 11:22:43;;;;;;;;;;;17.20;99.90;;;;;;5072505;28;20370;-71
2021/10/08 11:25:12;;;;;;;;;;;17.20;99.90;;;;;;5072765;28;19923;-69
2021/10/08 11:27:39;;;;;;;;;;;17.20;99.90;;;;;;5072750;28;19917;-69
2021/10/08 11:30:06;;;;;;;;;;;17.20;99.90;;;;;;5072756;28;19916;-70
2021/10/08 11:32:35;;;;;;;;;;;17.20;99.90;;;;;;5072483;28;19965;-68
2021/10/08 11:35:02;;;;;;;;;;;17.20;99.90;;;;;;5072287;28;19909;-70
2021/10/08 11:37:31;;;;;;;;;;;17.20;99.90;;;;;;5072631;28;19909;-69
2021/10/08 11:39:59;;;;;;;;;;;17.20;99.90;;;;;;5072457;28;19909;-70
2021/10/08 11:42:27;;;;;;;;;;;17.20;99.90;;;;;;5072510;28;20291;-70
2021/10/08 11:45:06;;;;;;;;;;;17.20;99.90;;;;;;5072218;28;19920;-70
2021/10/08 11:47:44;;;;;;;;;;;17.20;99.90;;;;;;5072229;28;19915;-68
2021/10/08 11:52:40;;;;;;;;;;;17.20;99.90;;;;;;5072407;28;19924;-68
2021/10/08 11:55:08;;;;;;;;;;;17.10;99.90;;;;;;5070853;28;20363;-69
2021/10/08 11:58:11;;;;;;;;;;;17.10;99.90;;;;;;5072008;28;20412;-70
2021/10/08 12:00:40;;;;;;;;;;;17.20;99.90;;;;;;5049561;28;19916;-68
2021/10/08 12:03:08;;;;;;;;;;;17.10;99.90;;;;;;5068248;28;19913;-67
2021/10/08 12:05:44;;;;;;;;;;;17.10;99.90;;;;;;5071840;28;19920;-68
2021/10/08 12:08:13;;;;;;;;;;;17.10;99.90;;;;;;5071541;28;19913;-68
2021/10/08 12:10:51;;;;;;;;;;;17.10;99.90;;;;;;5072067;28;19913;-71
2021/10/08 12:13:18;;;;;;;;;;;17.10;99.90;;;;;;5071581;28;20252;-72
2021/10/08 12:15:44;;;;;;;;;;;17.10;99.90;;;;;;5071584;28;19909;-68
2021/10/08 12:18:14;;;;;;;;;;;17.10;99.90;;;;;;5072638;28;19909;-71
2021/10/08 12:20:41;;;;;;;;;;;17.10;99.90;;;;;;5072643;28;19989;-70
2021/10/08 12:23:23;;;;;;;;;;;17.10;99.90;;;;;;5071828;28;20310;-71
2021/10/08 12:25:54;;;;;;;;;;;17.10;99.90;;;;;;5071197;28;20387;-71
2021/10/08 12:28:22;;;;;;;;;;;17.10;99.90;;;;;;5071720;28;19965;-71
2021/10/08 12:30:52;;;;;;;;;;;17.00;99.90;;;;;;5071570;28;19909;-68
2021/10/08 12:33:25;;;;;;;;;;;17.10;99.90;;;;;;5071783;28;19908;-71
2021/10/08 12:36:10;;;;;;;;;;;17.10;99.90;;;;;;5071309;28;19909;-70
2021/10/08 12:38:55;;;;;;;;;;;17.10;99.90;;;;;;5071252;28;20360;-71
2021/10/08 12:41:24;;;;;;;;;;;17.10;99.90;;;;;;5071736;28;20006;-70
2021/10/08 12:44:01;;;;;;;;;;;17.00;99.90;;;;;;5071523;28;19917;-72
2021/10/08 12:46:34;;;;;;;;;;;17.00;99.90;;;;;;5071668;28;19920;-71
2021/10/08 12:49:01;;;;;;;;;;;17.00;99.90;;;;;;5071892;28;19916;-71
2021/10/08 12:51:28;;;;;;;;;;;17.00;99.90;;;;;;5070876;28;19997;-71
2021/10/08 12:54:13;;;;;;;;;;;17.00;99.90;;;;;;5076440;28;20400;-70
2021/10/08 12:56:40;;;;;;;;;;;17.00;99.90;;;;;;5071697;28;19951;-71
2021/10/08 12:59:07;;;;;;;;;;;17.00;99.90;;;;;;5071341;28;20351;-72
2021/10/08 13:01:34;;;;;;;;;;;17.00;99.90;;;;;;5071018;28;19909;-71
2021/10/08 13:04:20;;;;;;;;;;;17.10;99.90;;;;;;5070852;28;19913;-71
2021/10/08 13:06:46;;;;;;;;;;;17.00;99.90;;;;;;5071088;28;20376;-71
2021/10/08 13:09:21;;;;;;;;;;;17.00;99.90;;;;;;5071045;28;19930;-68
2021/10/08 13:11:49;;;;;;;;;;;17.00;99.90;;;;;;5070661;28;20516;-68
2021/10/08 13:14:23;;;;;;;;;;;16.90;99.90;;;;;;5070804;28;19971;-68
2021/10/08 13:16:50;;;;;;;;;;;16.90;99.90;;;;;;5070340;28;20244;-68
2021/10/08 13:19:27;;;;;;;;;;;16.90;99.90;;;;;;5069980;28;19959;-68
2021/10/08 13:21:53;;;;;;;;;;;16.90;99.90;;;;;;5070348;28;19912;-68
2021/10/08 13:24:20;;;;;;;;;;;16.90;99.90;;;;;;5070780;28;19913;-68
2021/10/08 13:26:47;;;;;;;;;;;16.80;99.90;;;;;;5070586;28;19916;-68
2021/10/08 13:29:13;;;;;;;;;;;16.80;99.90;;;;;;5070537;28;19916;-68
2021/10/08 13:31:40;;;;;;;;;;;16.80;99.90;;;;;;5070200;28;20338;-68
2021/10/08 13:34:06;;;;;;;;;;;16.80;99.90;;;;;;5072498;28;19915;-69
2021/10/08 13:36:33;;;;;;;;;;;16.80;99.90;;;;;;5070563;28;19919;-68
2021/10/08 13:39:00;;;;;;;;;;;16.80;99.90;;;;;;5070527;28;20393;-68
2021/10/08 13:41:27;;;;;;;;;;;16.80;99.90;;;;;;5070362;28;19913;-68
2021/10/08 13:43:53;;;;;;;;;;;16.80;99.90;;;;;;5069866;28;19909;-68
2021/10/08 13:46:20;;;;;;;;;;;16.70;99.90;;;;;;5070265;28;19952;-68
2021/10/08 13:48:46;;;;;;;;;;;16.70;99.90;;;;;;5070408;28;19912;-68
2021/10/08 13:51:14;;;;;;;;;;;16.70;99.90;;;;;;5070296;28;19936;-69
2021/10/08 13:53:46;;;;;;;;;;;16.70;99.90;;;;;;5070309;28;20228;-68
2021/10/08 13:56:14;;;;;;;;;;;16.70;99.90;;;;;;5070279;28;19913;-68
2021/10/08 13:58:40;;;;;;;;;;;16.70;99.90;;;;;;5069121;28;19915;-68
2021/10/08 14:01:07;;;;;;;;;;;16.70;99.90;;;;;;5070167;28;19909;-68
2021/10/08 14:03:42;;;;;;;;;;;16.60;99.90;;;;;;5069955;28;19994;-68
2021/10/08 14:11:13;;;;;;;;;;;16.60;99.90;;;;;;5069974;28;19908;-68
2021/10/08 14:13:40;;;;;;;;;;;16.60;99.90;;;;;;5070043;28;20371;-68
2021/10/08 14:16:07;;;;;;;;;;;16.60;99.90;;;;;;5069893;28;19920;-68
2021/10/08 14:18:33;;;;;;;;;;;16.60;99.90;;;;;;5070229;28;19913;-68
2021/10/08 14:21:00;;;;;;;;;;;16.60;99.90;;;;;;5070121;28;19912;-69
2021/10/08 14:23:28;;;;;;;;;;;16.60;99.90;;;;;;5069499;28;20010;-69
2021/10/08 14:25:54;;;;;;;;;;;16.60;99.90;;;;;;5069855;28;19932;-69
2021/10/08 14:28:21;;;;;;;;;;;16.60;99.90;;;;;;5070160;28;19916;-69
2021/10/08 14:30:48;;;;;;;;;;;16.60;99.90;;;;;;5072902;28;19978;-69
2021/10/08 14:33:14;;;;;;;;;;;16.60;99.90;;;;;;5073933;28;19916;-69